ilmateenistus.ee keskkonnaagentuur.ee
EETN Tallinna lennuväli
FTEO31 EETN 210500 RRA
TAF EETN 210537Z 2106/2206 20007KT 9999 BKN040 PROB30 TEMPO 2106/2109
    BKN007 BEGMG 2107/2109 19017G27KT TEMPO 2200/2202 BKN010 SCT020CB
    TEMPO 2202/2206 4000 SHRA BKN006 BKN020CB BECMG 2202/2204 22014KT=

Tallinna lennuväli
EEKA Kärdla lennuväli
FCEO32 EETN 210300 AAA
TAF AMD EEKA 210700Z 2104/2110 CNL=

METAR EEKA 210650Z 18006KT 9999 BKN007 18/15 Q1009=
Kärdla lennuväli
EEKE Kuressaare lennuväli
FCEO32 EETN 210500 RRA
TAF EEKE 210507Z 2106/2112 21008KT 9999 SCT030 TEMPO 2106/2107 SCT003
    BKN005 TEMPO 2107/2112 18020G30KT=

METAR EEKE 210650Z 21009KT CAVOK 16/14 Q1010=
Kuressaare lennuväli
EEPU Pärnu lennuväli
METAR EEPU 210650Z 20008KT 170V230 9999 SCT006 17/16 Q1012=
Pärnu lennuväli
EETU Tartu lennuväli
METAR EETU 210720Z 21009KT CAVOK 18/14 Q1013=
Tartu lennuväli
EEEI Ämari lennuväli
METAR EEEI 210650Z 17010KT 9999 BKN009 16/14 Q1010 TEMPO SCT009=
Ämari lennuväli